Time;durP1;ratioP1;P1;durP2;ratioP2;P2;SDS_P1;SDS_P2;PMS_P1;PMS_P2;Temp;Humidity;BMP_temperature;BMP_pressure;BME280_temperature;BME280_humidity;BME280_pressure;Samples;Min_cycle;Max_cycle;Signal;HPM_P1;HPM_P2
2022/08/30 00:06:26;;;;;;;7.22;4.43;;;;;;;23.74;63.49;100483.22;20663056;28;20038;-75
2022/08/30 00:16:26;;;;;;;6.32;4.10;;;;;;;23.69;63.46;100480.97;20661575;28;20436;-77
2022/08/30 00:26:26;;;;;;;5.60;4.22;;;;;;;23.71;63.57;100481.69;20673386;28;20096;-77
2022/08/30 00:36:28;;;;;;;5.20;4.70;;;;;;;23.60;63.69;100476.50;20652367;28;20057;-78
2022/08/30 00:46:28;;;;;;;6.43;4.82;;;;;;;23.41;64.32;100488.66;20647969;28;20064;-78
2022/08/30 00:56:30;;;;;;;5.50;4.70;;;;;;;23.25;64.68;100483.00;20593794;28;20042;-78
2022/08/30 01:06:32;;;;;;;8.65;4.70;;;;;;;23.65;62.87;100479.56;20613936;28;20048;-78
2022/08/30 01:16:35;;;;;;;5.25;4.75;;;;;;;23.53;63.22;100478.81;20662948;28;21418;-77
2022/08/30 01:26:36;;;;;;;7.25;5.20;;;;;;;23.86;61.87;100484.78;20640011;28;20034;-77
2022/08/30 01:36:38;;;;;;;8.43;4.57;;;;;;;23.80;61.65;100466.81;20651645;28;20049;-77
2022/08/30 01:46:44;;;;;;;6.85;4.43;;;;;;;23.89;61.16;100465.16;20667968;28;20125;-78
2022/08/30 01:56:45;;;;;;;6.15;4.78;;;;;;;23.25;63.25;100457.41;20640946;28;20038;-76
2022/08/30 02:06:46;;;;;;;4.90;4.40;;;;;;;23.27;63.44;100460.75;20656075;28;20093;-76
2022/08/30 02:16:47;;;;;;;7.22;4.97;;;;;;;23.22;63.42;100464.75;20651234;28;20042;-77
2022/08/30 02:26:48;;;;;;;5.90;4.70;;;;;;;23.06;63.78;100452.84;20671325;28;20121;-77
2022/08/30 02:36:49;;;;;;;4.80;4.30;;;;;;;23.47;62.38;100460.84;20668839;28;21860;-78
2022/08/30 02:46:49;;;;;;;5.60;4.97;;;;;;;22.98;63.87;100458.75;20641646;28;20208;-78
2022/08/30 02:56:51;;;;;;;5.95;4.70;;;;;;;22.84;63.75;100454.63;20658800;28;20593;-77
2022/08/30 03:06:51;;;;;;;6.80;5.13;;;;;;;22.59;64.73;100455.81;20616966;28;20152;-74
2022/08/30 03:16:51;;;;;;;11.50;5.97;;;;;;;22.41;65.44;100460.81;20645395;28;20046;-74
2022/08/30 03:26:52;;;;;;;11.25;5.43;;;;;;;22.10;66.59;100478.25;20648395;28;20048;-76
2022/08/30 03:36:54;;;;;;;8.07;5.72;;;;;;;22.05;66.31;100484.72;20646545;28;20050;-76
2022/08/30 03:46:54;;;;;;;7.68;5.65;;;;;;;21.93;67.24;100479.59;20667914;28;20041;-77
2022/08/30 03:56:56;;;;;;;9.65;6.43;;;;;;;22.01;67.21;100498.28;20664973;28;20057;-77
2022/08/30 04:06:56;;;;;;;7.87;5.80;;;;;;;21.84;67.18;100507.53;20635051;28;20124;-77
2022/08/30 04:16:57;;;;;;;11.93;5.30;;;;;;;22.29;65.56;100509.25;20651562;28;20053;-77
2022/08/30 04:26:57;;;;;;;8.70;5.53;;;;;;;21.96;66.67;100532.06;20690875;28;20409;-77
2022/08/30 04:36:57;;;;;;;7.72;5.38;;;;;;;21.71;67.32;100549.78;20706854;28;20058;-76
2022/08/30 04:46:58;;;;;;;8.65;5.50;;;;;;;21.65;67.69;100564.28;20701986;28;20057;-75
2022/08/30 04:56:59;;;;;;;16.15;6.68;;;;;;;22.11;66.18;100569.59;20674681;28;20042;-74
2022/08/30 05:07:00;;;;;;;11.98;5.45;;;;;;;22.25;65.34;100569.31;20637381;28;20129;-75
2022/08/30 05:17:01;;;;;;;10.57;5.35;;;;;;;22.44;64.92;100575.81;20656351;28;20094;-74
2022/08/30 05:27:02;;;;;;;7.68;6.15;;;;;;;22.55;64.32;100578.44;20676028;28;20039;-74
2022/08/30 05:37:02;;;;;;;14.02;6.75;;;;;;;22.53;65.76;100572.44;20677433;28;20053;-77
2022/08/30 05:47:04;;;;;;;12.00;6.38;;;;;;;22.71;64.40;100580.69;20671200;28;20069;-80
2022/08/30 05:57:04;;;;;;;10.13;7.30;;;;;;;22.76;64.25;100588.22;20695678;28;20109;-79
2022/08/30 06:07:05;;;;;;;10.75;6.70;;;;;;;22.92;63.99;100588.63;20685326;28;20120;-79
2022/08/30 06:17:06;;;;;;;7.78;5.68;;;;;;;22.93;63.38;100592.97;20701378;28;20069;-80
2022/08/30 06:27:06;;;;;;;8.60;6.03;;;;;;;23.10;62.80;100588.94;20686081;28;20046;-77
2022/08/30 06:37:06;;;;;;;9.63;6.35;;;;;;;23.16;62.87;100583.19;20657936;28;20148;-75
2022/08/30 06:47:07;;;;;;;13.07;4.88;;;;;;;23.29;61.98;100590.06;20619880;28;20049;-75
2022/08/30 06:57:07;;;;;;;6.78;5.10;;;;;;;23.34;60.66;100587.91;20617783;28;20057;-76
2022/08/30 07:07:10;;;;;;;8.25;5.10;;;;;;;23.33;58.78;100586.22;20678622;28;20121;-75
2022/08/30 07:27:30;;;;;;;12.07;4.88;;;;;;;23.61;57.38;100597.97;20722589;28;20030;-75
2022/08/30 07:37:31;;;;;;;9.50;4.87;;;;;;;23.73;52.99;100603.16;20699843;28;20061;-73
2022/08/30 07:47:31;;;;;;;8.40;4.80;;;;;;;23.86;53.59;100608.25;20687503;28;20054;-75
2022/08/30 07:57:33;;;;;;;10.63;4.90;;;;;;;23.91;53.21;100609.53;20711564;28;20675;-75
2022/08/30 08:07:34;;;;;;;6.83;4.20;;;;;;;24.01;51.67;100600.84;20700664;28;20283;-75
2022/08/30 08:17:34;;;;;;;12.30;5.90;;;;;;;24.11;55.11;100602.56;20697896;28;20296;-75
2022/08/30 08:27:34;;;;;;;5.85;3.72;;;;;;;24.14;49.14;100597.00;20671987;28;20045;-77
2022/08/30 08:37:35;;;;;;;5.22;4.65;;;;;;;24.19;51.25;100599.22;20677242;28;20041;-74
2022/08/30 08:47:39;;;;;;;4.95;3.38;;;;;;;24.21;47.65;100607.88;20707671;28;20045;-75
2022/08/30 08:57:45;;;;;;;7.32;3.90;;;;;;;24.32;46.03;100592.91;20709268;28;20046;-75
2022/08/30 09:07:55;;;;;;;6.18;3.90;;;;;;;24.42;46.24;100596.41;20638329;28;20053;-75
2022/08/30 09:17:58;;;;;;;4.25;3.60;;;;;;;24.56;45.27;100587.22;20719616;28;20037;-78
2022/08/30 09:28:14;;;;;;;5.50;3.65;;;;;;;24.63;47.20;100572.47;20723714;28;20144;-79
2022/08/30 09:38:22;;;;;;;8.48;3.97;;;;;;;24.75;44.56;100565.28;20734935;28;20050;-78
2022/08/30 09:48:26;;;;;;;5.50;3.72;;;;;;;24.85;45.26;100560.84;20719111;28;20061;-78
2022/08/30 09:58:32;;;;;;;7.70;3.75;;;;;;;25.11;44.68;100539.06;20735708;28;20123;-80
2022/08/30 10:09:17;;;;;;;11.63;4.78;;;;;;;25.15;43.85;100537.78;20730733;28;20034;-77
2022/08/30 10:19:39;;;;;;;5.88;3.80;;;;;;;25.18;43.11;100532.22;20698625;28;20092;-82
2022/08/30 10:29:44;;;;;;;4.75;3.63;;;;;;;25.28;43.63;100532.22;20641252;28;20409;-78
2022/08/30 10:39:49;;;;;;;11.07;4.78;;;;;;;25.43;47.35;100524.66;20687532;28;20026;-81
2022/08/30 10:49:56;;;;;;;6.88;4.18;;;;;;;25.55;47.12;100520.03;20703301;28;20150;-80
2022/08/30 11:00:01;;;;;;;6.72;4.65;;;;;;;25.70;46.48;100496.53;20673421;28;20461;-85
2022/08/30 11:10:25;;;;;;;5.28;3.95;;;;;;;25.80;46.72;100481.38;20693737;28;20092;-80
2022/08/30 11:20:28;;;;;;;6.65;4.05;;;;;;;25.87;47.13;100484.31;20736465;28;20045;-84
2022/08/30 11:30:30;;;;;;;4.78;3.95;;;;;;;25.97;47.09;100471.81;20735873;28;20508;-79
2022/08/30 11:40:33;;;;;;;6.85;3.95;;;;;;;26.06;45.60;100462.09;20769600;28;20135;-78
2022/08/30 11:50:58;;;;;;;5.15;4.32;;;;;;;26.13;45.61;100446.47;20739008;28;20053;-85
2022/08/30 12:01:18;;;;;;;10.70;4.45;;;;;;;26.48;45.76;100428.88;20677164;28;20046;-84
2022/08/30 12:11:18;;;;;;;10.35;5.03;;;;;;;26.49;45.01;100425.25;20671668;28;20061;-80
2022/08/30 12:21:18;;;;;;;8.15;4.97;;;;;;;26.57;44.41;100417.31;20578438;28;20165;-78
2022/08/30 12:31:24;;;;;;;6.72;4.03;;;;;;;26.71;44.12;100391.19;20664096;28;20432;-82
2022/08/30 12:41:26;;;;;;;5.47;4.25;;;;;;;26.80;41.79;100377.03;20740710;28;20057;-76
2022/08/30 12:51:39;;;;;;;7.80;4.50;;;;;;;26.97;39.85;100364.66;20727876;28;20037;-79
2022/08/30 13:01:41;;;;;;;8.50;4.38;;;;;;;26.98;40.82;100353.88;20712910;28;20081;-81
2022/08/30 13:11:47;;;;;;;5.45;4.40;;;;;;;26.99;42.02;100349.41;20733788;28;20402;-78
2022/08/30 13:21:53;;;;;;;5.88;4.20;;;;;;;27.08;40.98;100343.13;20656881;28;20442;-78
2022/08/30 13:31:55;;;;;;;7.60;4.70;;;;;;;27.10;40.48;100332.31;20723515;28;20100;-78
2022/08/30 13:41:55;;;;;;;6.75;4.25;;;;;;;27.10;40.92;100319.03;20686136;28;20091;-79
2022/08/30 13:51:56;;;;;;;12.02;4.45;;;;;;;27.22;41.50;100315.13;20681770;28;20050;-77
2022/08/30 14:01:56;;;;;;;5.85;4.20;;;;;;;27.25;41.83;100313.97;20672492;28;20116;-77
2022/08/30 14:11:56;;;;;;;7.23;4.43;;;;;;;27.20;42.26;100292.34;20677484;28;21756;-77
2022/08/30 14:21:57;;;;;;;7.70;4.13;;;;;;;27.27;43.51;100299.53;20633169;28;20378;-79
2022/08/30 14:31:58;;;;;;;5.80;4.00;;;;;;;27.33;44.03;100284.72;20691520;28;20070;-80
2022/08/30 14:41:59;;;;;;;7.40;4.40;;;;;;;27.30;43.82;100282.41;20677586;28;20148;-80
2022/08/30 14:52:00;;;;;;;7.90;4.38;;;;;;;27.25;42.65;100280.22;20676464;28;20045;-79
2022/08/30 15:02:01;;;;;;;4.72;3.75;;;;;;;27.19;42.49;100277.41;20701088;28;20169;-79
2022/08/30 15:12:02;;;;;;;4.20;3.80;;;;;;;27.13;43.14;100271.72;20675606;28;20046;-81
2022/08/30 15:22:04;;;;;;;5.53;4.40;;;;;;;27.14;43.95;100277.88;20689952;28;20522;-80
2022/08/30 15:32:05;;;;;;;5.57;4.10;;;;;;;27.12;44.94;100272.72;20662405;28;20513;-78
2022/08/30 15:42:07;;;;;;;5.15;4.15;;;;;;;27.10;44.83;100264.06;20675530;28;20054;-79
2022/08/30 15:52:07;;;;;;;14.23;4.63;;;;;;;27.14;46.41;100273.38;20646384;28;20156;-80
2022/08/30 16:02:08;;;;;;;7.97;4.80;;;;;;;27.21;46.99;100268.25;20657047;28;20052;-79
2022/08/30 16:12:08;;;;;;;4.60;4.03;;;;;;;27.28;45.80;100260.47;20661841;28;20112;-74
2022/08/30 16:22:10;;;;;;;5.60;4.35;;;;;;;27.27;45.07;100254.31;20638092;28;21073;-74
2022/08/30 16:32:12;;;;;;;8.80;4.40;;;;;;;27.37;45.09;100242.69;20666795;28;20077;-76
2022/08/30 16:42:13;;;;;;;7.97;4.15;;;;;;;27.56;44.61;100253.09;20686943;28;20037;-74
2022/08/30 16:52:14;;;;;;;5.68;3.70;;;;;;;27.54;42.79;100251.56;20672239;28;20050;-76
2022/08/30 17:02:14;;;;;;;7.95;4.15;;;;;;;27.41;42.60;100252.06;20662760;28;20480;-76
2022/08/30 17:12:15;;;;;;;11.95;3.90;;;;;;;27.27;43.26;100267.63;20655047;28;21358;-76
2022/08/30 17:22:16;;;;;;;5.05;3.30;;;;;;;27.16;40.69;100275.91;20691338;28;20409;-76
2022/08/30 17:32:17;;;;;;;8.25;4.68;;;;;;;27.12;41.16;100283.38;20677902;28;20045;-78
2022/08/30 17:42:19;;;;;;;9.93;5.70;;;;;;;27.00;41.62;100292.59;20689615;28;20037;-86
2022/08/30 17:52:19;;;;;;;7.18;4.97;;;;;;;26.91;41.91;100314.81;20694946;28;20054;-78
2022/08/30 18:02:20;;;;;;;8.87;3.97;;;;;;;26.79;41.29;100314.25;20675149;28;20073;-77
2022/08/30 18:12:21;;;;;;;8.53;4.10;;;;;;;26.66;41.63;100334.06;20682568;28;20129;-78
2022/08/30 18:22:21;;;;;;;;;;;;;;;26.53;41.87;100344.28;20630693;28;20299;-77
2022/08/30 18:32:21;;;;;;;7.82;3.75;;;;;;;26.31;41.68;100342.97;20644741;28;19930;-76
2022/08/30 18:42:22;;;;;;;5.80;2.85;;;;;;;26.16;42.12;100345.34;20694784;28;20057;-79
2022/08/30 18:52:24;;;;;;;4.60;3.30;;;;;;;26.07;42.70;100355.03;20656443;28;21211;-78
2022/08/30 19:02:24;;;;;;;8.43;4.05;;;;;;;26.00;43.42;100362.75;20607220;28;20093;-77
2022/08/30 19:12:28;;;;;;;8.50;3.88;;;;;;;25.95;43.16;100357.06;20656260;28;20072;-87
2022/08/30 19:22:28;;;;;;;5.45;3.80;;;;;;;25.89;43.46;100365.63;20696589;28;20048;-80
2022/08/30 19:32:28;;;;;;;6.65;4.55;;;;;;;25.91;43.38;100371.59;20689476;28;20070;-82
2022/08/30 19:42:29;;;;;;;8.73;4.05;;;;;;;25.85;43.35;100362.44;20721697;28;20038;-86
2022/08/30 19:52:30;;;;;;;8.77;4.15;;;;;;;25.78;44.17;100366.66;20716269;28;20041;-83
2022/08/30 20:02:32;;;;;;;7.40;3.85;;;;;;;25.76;44.14;100365.97;20726975;28;20033;-88
2022/08/30 20:12:33;;;;;;;;;;;;;;;25.72;44.87;100370.75;20752992;28;20052;-86
2022/08/30 20:22:33;;;;;;;5.80;4.43;;;;;;;25.67;44.02;100373.03;20742621;28;19960;-86
2022/08/30 20:32:36;;;;;;;6.35;3.60;;;;;;;25.52;43.95;100370.03;20695400;28;20050;-85
2022/08/30 20:42:37;;;;;;;8.40;4.72;;;;;;;25.40;44.09;100352.63;20735775;28;20377;-86
2022/08/30 20:52:39;;;;;;;;;;;;;;;25.57;43.95;100356.31;20720438;28;20057;-86
2022/08/30 21:02:41;;;;;;;7.75;4.07;;;;;;;25.36;45.02;100362.66;20737624;28;19970;-85
2022/08/30 21:12:42;;;;;;;9.00;4.47;;;;;;;25.24;46.18;100364.69;20731074;28;20501;-86
2022/08/30 21:22:42;;;;;;;8.35;4.25;;;;;;;25.23;46.49;100375.44;20745999;28;20056;-84
2022/08/30 21:32:43;;;;;;;8.07;4.45;;;;;;;25.05;47.46;100360.31;20762153;28;20099;-83
2022/08/30 21:42:44;;;;;;;7.50;4.00;;;;;;;24.79;48.40;100365.38;20726567;28;20562;-83
2022/08/30 21:52:48;;;;;;;9.48;4.38;;;;;;;24.65;49.47;100373.78;20731521;28;20077;-82
2022/08/30 22:02:49;;;;;;;7.53;4.38;;;;;;;24.57;49.65;100377.09;20726199;28;20057;-82
2022/08/30 22:12:49;;;;;;;6.93;4.27;;;;;;;24.60;49.42;100375.03;20666926;28;20042;-80
2022/08/30 22:22:49;;;;;;;6.07;4.47;;;;;;;24.66;48.62;100367.50;20679267;28;20045;-83
2022/08/30 22:32:51;;;;;;;10.00;4.00;;;;;;;24.72;47.71;100369.63;20691206;28;20459;-85
2022/08/30 22:42:53;;;;;;;5.35;3.60;;;;;;;24.82;47.37;100378.34;20692947;28;20057;-83
2022/08/30 22:52:53;;;;;;;8.00;3.80;;;;;;;24.83;47.77;100385.34;20662090;28;20056;-82
2022/08/30 23:02:53;;;;;;;6.13;4.00;;;;;;;24.72;47.85;100365.13;20700177;28;20279;-83
2022/08/30 23:12:55;;;;;;;8.75;4.22;;;;;;;24.67;47.94;100361.25;20631407;28;20046;-84
